Time;durP1;ratioP1;P1;durP2;ratioP2;P2;SDS_P1;SDS_P2;PMS_P1;PMS_P2;Temp;Humidity;BMP_temperature;BMP_pressure;BME280_temperature;BME280_humidity;BME280_pressure;Samples;Min_cycle;Max_cycle;Signal;HPM_P1;HPM_P2
2022/12/30 00:00:30;;;;;;;1.05;1.05;;;;;;;;;;5083568;28;20214;-66
2022/12/30 00:02:56;;;;;;;0.85;0.82;;;;;;;;;;5083458;28;20196;-66
2022/12/30 00:05:22;;;;;;;0.98;0.98;;;;;;;;;;5083315;28;20200;-66
2022/12/30 00:07:48;;;;;;;1.00;1.00;;;;;;;;;;5083262;28;20205;-66
2022/12/30 00:10:15;;;;;;;0.90;0.88;;;;;;;;;;5082850;28;20220;-66
2022/12/30 00:34:45;;;;;;;1.70;1.60;;;;;;;;;;5083021;28;20227;-65
2022/12/30 00:37:11;;;;;;;1.40;1.40;;;;;;;;;;5083209;28;20196;-65
2022/12/30 00:39:37;;;;;;;1.35;1.25;;;;;;;;;;5082408;28;20196;-65
2022/12/30 00:44:49;;;;;;;1.80;1.20;;;;;;;;;;5082724;28;20241;-66
2022/12/30 00:47:15;;;;;;;0.93;0.93;;;;;;;;;;5082480;28;20203;-65
2022/12/30 00:57:53;;;;;;;0.70;0.70;;;;;;;;;;5082407;28;20180;-67
2022/12/30 01:00:21;;;;;;;0.70;0.70;;;;;;;;;;5082110;28;20207;-67
2022/12/30 01:02:47;;;;;;;0.70;0.70;;;;;;;;;;5082484;28;20199;-67
2022/12/30 01:05:13;;;;;;;0.77;0.77;;;;;;;;;;5082437;28;20233;-67
2022/12/30 01:07:39;;;;;;;0.90;0.90;;;;;;;;;;5082537;28;20198;-67
2022/12/30 01:10:06;;;;;;;1.30;1.30;;;;;;;;;;5081997;28;20523;-67
2022/12/30 01:12:32;;;;;;;1.00;1.00;;;;;;;;;;5082495;28;20267;-67
2022/12/30 01:14:59;;;;;;;1.02;1.02;;;;;;;;;;5082215;28;20204;-67
2022/12/30 01:17:28;;;;;;;1.25;0.88;;;;;;;;;;5082679;28;20261;-67
2022/12/30 01:19:54;;;;;;;0.77;0.77;;;;;;;;;;5081878;28;20196;-68
2022/12/30 01:22:20;;;;;;;0.63;0.63;;;;;;;;;;5082007;28;20437;-68
2022/12/30 01:24:47;;;;;;;1.20;1.00;;;;;;;;;;5082275;28;20536;-69
2022/12/30 01:27:13;;;;;;;1.75;0.95;;;;;;;;;;5082314;28;20204;-68
2022/12/30 01:29:41;;;;;;;0.77;0.75;;;;;;;;;;5081889;28;20196;-68
2022/12/30 01:32:08;;;;;;;0.50;0.50;;;;;;;;;;5082581;28;20470;-68
2022/12/30 01:34:36;;;;;;;0.50;0.50;;;;;;;;;;5081861;28;20204;-67
2022/12/30 01:37:02;;;;;;;0.60;0.60;;;;;;;;;;5082062;28;20200;-67
2022/12/30 01:39:29;;;;;;;0.68;0.68;;;;;;;;;;5081884;28;20204;-68
2022/12/30 01:41:56;;;;;;;0.52;0.52;;;;;;;;;;5082313;28;20200;-68
2022/12/30 01:44:40;;;;;;;1.65;0.70;;;;;;;;;;5082185;28;20205;-69
2022/12/30 01:47:07;;;;;;;0.80;0.50;;;;;;;;;;5082095;28;20405;-68
2022/12/30 01:49:36;;;;;;;0.82;0.82;;;;;;;;;;5081490;28;20266;-68
2022/12/30 01:52:04;;;;;;;1.00;0.65;;;;;;;;;;5082185;28;20227;-68
2022/12/30 01:54:30;;;;;;;0.50;0.50;;;;;;;;;;5081929;28;20527;-68
2022/12/30 01:56:57;;;;;;;0.65;0.55;;;;;;;;;;5081946;28;20340;-68
2022/12/30 01:59:26;;;;;;;1.20;0.60;;;;;;;;;;5081405;28;20196;-68
2022/12/30 02:01:52;;;;;;;0.82;0.60;;;;;;;;;;5081962;28;20259;-68
2022/12/30 02:04:20;;;;;;;0.85;0.60;;;;;;;;;;5081890;28;20203;-67
2022/12/30 02:06:50;;;;;;;0.75;0.70;;;;;;;;;;5082045;28;20196;-68
2022/12/30 02:09:18;;;;;;;0.35;0.35;;;;;;;;;;5081346;28;20450;-68
2022/12/30 02:11:44;;;;;;;0.50;0.50;;;;;;;;;;5081709;28;20262;-67
2022/12/30 02:14:10;;;;;;;0.43;0.43;;;;;;;;;;5082092;28;20200;-67
2022/12/30 02:16:41;;;;;;;3.03;0.50;;;;;;;;;;5081847;28;20200;-67
2022/12/30 02:19:21;;;;;;;1.95;0.40;;;;;;;;;;5081305;28;20234;-67
2022/12/30 02:21:50;;;;;;;0.40;0.40;;;;;;;;;;5081683;28;20201;-67
2022/12/30 02:24:31;;;;;;;0.30;0.30;;;;;;;;;;5082103;28;20196;-67
2022/12/30 02:27:12;;;;;;;0.52;0.40;;;;;;;;;;5081626;28;20208;-67
2022/12/30 02:29:48;;;;;;;0.45;0.30;;;;;;;;;;5081447;28;20196;-67
2022/12/30 02:32:19;;;;;;;0.38;0.38;;;;;;;;;;5081818;28;20224;-67
2022/12/30 02:34:49;;;;;;;0.40;0.32;;;;;;;;;;5081589;28;20196;-68
2022/12/30 02:37:20;;;;;;;0.40;0.40;;;;;;;;;;5081518;28;20201;-68
2022/12/30 02:39:50;;;;;;;0.60;0.60;;;;;;;;;;5081535;28;20215;-67
2022/12/30 02:45:05;;;;;;;0.73;0.38;;;;;;;;;;5081658;28;20195;-67
2022/12/30 02:47:36;;;;;;;1.60;0.40;;;;;;;;;;5084710;28;20212;-68
2022/12/30 02:52:49;;;;;;;0.30;0.30;;;;;;;;;;5085064;28;20192;-68
2022/12/30 02:55:16;;;;;;;0.30;0.30;;;;;;;;;;5085075;28;20203;-68
2022/12/30 02:57:42;;;;;;;0.50;0.30;;;;;;;;;;5084955;28;20201;-68
2022/12/30 03:06:05;;;;;;;0.35;0.35;;;;;;;;;;5084644;28;20424;-67
2022/12/30 03:08:36;;;;;;;0.32;0.30;;;;;;;;;;5084346;28;20419;-67
2022/12/30 03:11:13;;;;;;;0.20;0.20;;;;;;;;;;5084469;28;20219;-67
2022/12/30 03:13:43;;;;;;;1.08;0.35;;;;;;;;;;5084554;28;20464;-67
2022/12/30 03:16:12;;;;;;;0.32;0.32;;;;;;;;;;5084843;28;20197;-67
2022/12/30 03:18:41;;;;;;;0.50;0.50;;;;;;;;;;5084104;28;20218;-68
2022/12/30 03:21:10;;;;;;;0.65;0.40;;;;;;;;;;5084445;28;20201;-69
2022/12/30 03:29:17;;;;;;;0.40;0.40;;;;;;;;;;5083869;28;20265;-68
2022/12/30 03:31:44;;;;;;;0.40;0.40;;;;;;;;;;5084085;28;20223;-67
2022/12/30 03:34:11;;;;;;;0.60;0.50;;;;;;;;;;5084296;28;20196;-67
2022/12/30 03:36:39;;;;;;;0.43;0.43;;;;;;;;;;5084278;28;20200;-66
2022/12/30 03:39:08;;;;;;;0.40;0.40;;;;;;;;;;5083663;28;20197;-66
2022/12/30 03:41:35;;;;;;;1.30;0.40;;;;;;;;;;5084004;28;20196;-66
2022/12/30 03:44:01;;;;;;;0.30;0.30;;;;;;;;;;5083980;28;20200;-66
2022/12/30 03:46:29;;;;;;;0.30;0.30;;;;;;;;;;5083763;28;20201;-66
2022/12/30 03:48:55;;;;;;;1.80;0.40;;;;;;;;;;5083364;28;20243;-66
2022/12/30 03:51:22;;;;;;;0.30;0.30;;;;;;;;;;5083678;28;20208;-66
2022/12/30 03:53:49;;;;;;;0.50;0.50;;;;;;;;;;5083772;28;20535;-66
2022/12/30 03:56:15;;;;;;;0.50;0.50;;;;;;;;;;5083649;28;20234;-66
2022/12/30 03:58:41;;;;;;;0.77;0.40;;;;;;;;;;5082976;28;20200;-66
2022/12/30 04:01:07;;;;;;;1.15;0.30;;;;;;;;;;5083412;28;20523;-66
2022/12/30 04:03:34;;;;;;;0.98;0.50;;;;;;;;;;5084045;28;20196;-66
2022/12/30 04:06:00;;;;;;;0.65;0.50;;;;;;;;;;5083671;28;20242;-66
2022/12/30 04:08:28;;;;;;;3.03;0.32;;;;;;;;;;5083081;28;20544;-66
2022/12/30 04:10:54;;;;;;;2.05;0.47;;;;;;;;;;5083696;28;20417;-66
2022/12/30 04:13:20;;;;;;;0.40;0.40;;;;;;;;;;5083066;28;20384;-66
2022/12/30 04:15:47;;;;;;;0.30;0.30;;;;;;;;;;5083572;28;20421;-66
2022/12/30 04:18:13;;;;;;;0.70;0.50;;;;;;;;;;5083102;28;20388;-66
2022/12/30 04:20:40;;;;;;;0.68;0.68;;;;;;;;;;5083245;28;20279;-66
2022/12/30 04:23:06;;;;;;;0.60;0.60;;;;;;;;;;5083295;28;20211;-66
2022/12/30 04:25:33;;;;;;;1.50;0.50;;;;;;;;;;5083118;28;20196;-66
2022/12/30 04:28:00;;;;;;;0.40;0.40;;;;;;;;;;5082506;28;20223;-67
2022/12/30 04:30:26;;;;;;;0.40;0.40;;;;;;;;;;5083022;28;20200;-68
2022/12/30 04:32:52;;;;;;;1.35;0.50;;;;;;;;;;5083025;28;20220;-68
2022/12/30 04:35:19;;;;;;;0.40;0.40;;;;;;;;;;5083176;28;20502;-68
2022/12/30 04:37:45;;;;;;;0.63;0.63;;;;;;;;;;5083015;28;20204;-68
2022/12/30 04:40:11;;;;;;;1.20;0.85;;;;;;;;;;5082636;28;20200;-68
2022/12/30 04:42:39;;;;;;;0.52;0.52;;;;;;;;;;5082724;28;20234;-68
2022/12/30 04:45:05;;;;;;;0.60;0.60;;;;;;;;;;5082903;28;20202;-68
2022/12/30 04:47:32;;;;;;;0.60;0.60;;;;;;;;;;5083065;28;20197;-68
2022/12/30 04:50:01;;;;;;;0.82;0.73;;;;;;;;;;5082664;28;20201;-70
2022/12/30 04:52:27;;;;;;;1.85;0.70;;;;;;;;;;5082498;28;20430;-70
2022/12/30 04:54:53;;;;;;;0.68;0.68;;;;;;;;;;5082427;28;20200;-70
2022/12/30 04:57:20;;;;;;;0.47;0.47;;;;;;;;;;5082470;28;20204;-68
2022/12/30 04:59:47;;;;;;;0.75;0.50;;;;;;;;;;5082358;28;20196;-68
2022/12/30 05:02:14;;;;;;;0.70;0.60;;;;;;;;;;5082582;28;20196;-68
2022/12/30 05:04:40;;;;;;;1.98;0.50;;;;;;;;;;5082647;28;20212;-68
2022/12/30 05:07:07;;;;;;;0.80;0.80;;;;;;;;;;5082349;28;20197;-68
2022/12/30 05:09:33;;;;;;;0.70;0.70;;;;;;;;;;5081570;28;20234;-68
2022/12/30 05:11:59;;;;;;;0.70;0.70;;;;;;;;;;5082275;28;20223;-68
2022/12/30 05:14:26;;;;;;;0.60;0.60;;;;;;;;;;5082539;28;20196;-68
2022/12/30 05:16:53;;;;;;;0.63;0.63;;;;;;;;;;5082472;28;20197;-68
2022/12/30 05:19:19;;;;;;;0.77;0.77;;;;;;;;;;5082063;28;20201;-68
2022/12/30 05:21:46;;;;;;;0.70;0.70;;;;;;;;;;5082084;28;20204;-68
2022/12/30 05:26:56;;;;;;;1.25;0.75;;;;;;;;;;5082382;28;20214;-68
2022/12/30 05:29:22;;;;;;;0.57;0.57;;;;;;;;;;5082043;28;20385;-68
2022/12/30 05:31:48;;;;;;;1.80;0.70;;;;;;;;;;5082216;28;20455;-68
2022/12/30 05:34:16;;;;;;;0.68;0.68;;;;;;;;;;5082375;28;20425;-68
2022/12/30 05:36:42;;;;;;;0.73;0.73;;;;;;;;;;5082350;28;20227;-68
2022/12/30 05:39:10;;;;;;;0.63;0.50;;;;;;;;;;5081684;28;20188;-68
2022/12/30 05:41:36;;;;;;;0.70;0.70;;;;;;;;;;5081877;28;20192;-68
2022/12/30 05:44:03;;;;;;;0.70;0.70;;;;;;;;;;5082100;28;20222;-68
2022/12/30 05:46:29;;;;;;;1.17;0.63;;;;;;;;;;5082256;28;20196;-68
2022/12/30 05:48:55;;;;;;;0.47;0.47;;;;;;;;;;5081749;28;20283;-68
2022/12/30 05:51:23;;;;;;;1.85;0.70;;;;;;;;;;5081746;28;20196;-68
2022/12/30 05:53:49;;;;;;;0.60;0.60;;;;;;;;;;5082023;28;20200;-68
2022/12/30 05:56:15;;;;;;;0.60;0.60;;;;;;;;;;5081886;28;20242;-68
2022/12/30 05:58:42;;;;;;;0.50;0.50;;;;;;;;;;5081615;28;20196;-68
2022/12/30 06:01:08;;;;;;;0.93;0.93;;;;;;;;;;5082038;28;20200;-68
2022/12/30 06:03:35;;;;;;;1.55;0.80;;;;;;;;;;5081901;28;20200;-68
2022/12/30 06:06:02;;;;;;;0.50;0.50;;;;;;;;;;5081715;28;20196;-68
2022/12/30 06:08:29;;;;;;;1.40;0.43;;;;;;;;;;5081736;28;20208;-68
2022/12/30 06:10:56;;;;;;;2.30;0.90;;;;;;;;;;5081784;28;20271;-68
2022/12/30 06:13:22;;;;;;;0.85;0.70;;;;;;;;;;5081802;28;20217;-68
2022/12/30 06:15:49;;;;;;;1.73;1.00;;;;;;;;;;5081605;28;20208;-68
2022/12/30 06:18:15;;;;;;;0.85;0.70;;;;;;;;;;5081204;28;20196;-68
2022/12/30 06:20:41;;;;;;;0.82;0.70;;;;;;;;;;5081596;28;20207;-68
2022/12/30 06:23:08;;;;;;;0.80;0.80;;;;;;;;;;5085318;28;20193;-68
2022/12/30 06:25:36;;;;;;;1.02;0.77;;;;;;;;;;5085118;28;20207;-68
2022/12/30 06:28:02;;;;;;;0.70;0.70;;;;;;;;;;5084860;28;20277;-68
2022/12/30 06:30:28;;;;;;;0.77;0.77;;;;;;;;;;5084848;28;20227;-68
2022/12/30 06:32:54;;;;;;;0.80;0.80;;;;;;;;;;5084836;28;20399;-68
2022/12/30 06:35:21;;;;;;;1.73;0.80;;;;;;;;;;5084854;28;20508;-68
2022/12/30 06:37:47;;;;;;;1.33;1.23;;;;;;;;;;5085017;28;20242;-68
2022/12/30 06:40:13;;;;;;;1.88;1.77;;;;;;;;;;5084346;28;20204;-68
2022/12/30 06:42:41;;;;;;;2.30;2.20;;;;;;;;;;5085302;28;20488;-68
2022/12/30 06:45:08;;;;;;;1.77;1.67;;;;;;;;;;5085094;28;20196;-68
2022/12/30 06:47:34;;;;;;;2.05;1.95;;;;;;;;;;5084825;28;20197;-68
2022/12/30 06:50:00;;;;;;;1.33;1.33;;;;;;;;;;5084547;28;20205;-68
2022/12/30 06:52:26;;;;;;;1.33;1.23;;;;;;;;;;5084753;28;20274;-68
2022/12/30 06:54:53;;;;;;;1.48;1.42;;;;;;;;;;5084890;28;20422;-67
2022/12/30 06:57:19;;;;;;;1.20;1.20;;;;;;;;;;5084956;28;20577;-69
2022/12/30 06:59:46;;;;;;;1.27;1.17;;;;;;;;;;5084388;28;20531;-69
2022/12/30 07:02:13;;;;;;;1.00;1.00;;;;;;;;;;5084364;28;20416;-69
2022/12/30 07:04:39;;;;;;;0.90;0.90;;;;;;;;;;5084821;28;20416;-69
2022/12/30 07:07:06;;;;;;;1.20;1.20;;;;;;;;;;5084970;28;20503;-69
2022/12/30 07:09:32;;;;;;;1.20;1.20;;;;;;;;;;5084155;28;20242;-69
2022/12/30 07:11:58;;;;;;;1.17;1.17;;;;;;;;;;5084320;28;20592;-69
2022/12/30 07:14:24;;;;;;;1.13;1.13;;;;;;;;;;5084528;28;20204;-69
2022/12/30 07:16:52;;;;;;;1.67;1.65;;;;;;;;;;5084438;28;20280;-69
2022/12/30 07:19:18;;;;;;;0.90;0.90;;;;;;;;;;5084217;28;20200;-69
2022/12/30 07:21:45;;;;;;;1.95;1.50;;;;;;;;;;5084389;28;20626;-69
2022/12/30 07:24:11;;;;;;;1.75;1.45;;;;;;;;;;5084581;28;20208;-69
2022/12/30 07:26:37;;;;;;;2.28;1.80;;;;;;;;;;5084286;28;20197;-69
2022/12/30 07:29:03;;;;;;;1.70;1.60;;;;;;;;;;5083847;28;20216;-69
2022/12/30 07:31:30;;;;;;;1.85;1.75;;;;;;;;;;5083863;28;20201;-69
2022/12/30 07:33:57;;;;;;;2.80;1.77;;;;;;;;;;5084082;28;20216;-69
2022/12/30 07:36:23;;;;;;;2.45;2.25;;;;;;;;;;5083926;28;20197;-69
2022/12/30 07:38:50;;;;;;;2.90;2.80;;;;;;;;;;5083679;28;20201;-70
2022/12/30 07:41:16;;;;;;;2.85;2.38;;;;;;;;;;5084317;28;20508;-70
2022/12/30 07:43:42;;;;;;;3.17;2.97;;;;;;;;;;5084379;28;20484;-70
2022/12/30 07:46:09;;;;;;;2.63;2.53;;;;;;;;;;5083776;28;20546;-70
2022/12/30 07:48:36;;;;;;;2.40;2.30;;;;;;;;;;5083465;28;20196;-70
2022/12/30 07:51:07;;;;;;;3.03;2.83;;;;;;;;;;5083859;28;20248;-70
2022/12/30 07:53:33;;;;;;;2.60;2.50;;;;;;;;;;5083769;28;20216;-70
2022/12/30 07:56:02;;;;;;;2.50;2.40;;;;;;;;;;5083901;28;20300;-70
2022/12/30 07:58:28;;;;;;;3.03;2.83;;;;;;;;;;5083121;28;20203;-70
2022/12/30 08:00:55;;;;;;;3.20;3.00;;;;;;;;;;5083672;28;20196;-70
2022/12/30 08:03:21;;;;;;;3.33;2.95;;;;;;;;;;5083903;28;20193;-70
2022/12/30 08:05:47;;;;;;;3.55;3.25;;;;;;;;;;5083832;28;20196;-70
2022/12/30 08:08:15;;;;;;;4.40;2.40;;;;;;;;;;5083097;28;20545;-70
2022/12/30 08:10:41;;;;;;;3.55;2.30;;;;;;;;;;5083328;28;20484;-71
2022/12/30 08:13:07;;;;;;;2.40;2.30;;;;;;;;;;5083339;28;20223;-69
2022/12/30 08:15:34;;;;;;;2.65;2.55;;;;;;;;;;5083598;28;20192;-69
2022/12/30 08:18:00;;;;;;;2.83;2.63;;;;;;;;;;5083095;28;20543;-69
2022/12/30 08:20:26;;;;;;;4.13;3.78;;;;;;;;;;5083552;28;20496;-69
2022/12/30 08:22:52;;;;;;;3.80;3.15;;;;;;;;;;5083433;28;20496;-70
2022/12/30 08:25:20;;;;;;;5.18;4.35;;;;;;;;;;5083062;28;20518;-70
2022/12/30 08:27:46;;;;;;;5.10;4.60;;;;;;;;;;5082990;28;20554;-71
2022/12/30 08:30:13;;;;;;;4.53;4.22;;;;;;;;;;5082945;28;20504;-71
2022/12/30 08:32:39;;;;;;;3.72;3.45;;;;;;;;;;5083177;28;20416;-71
2022/12/30 08:35:07;;;;;;;4.32;4.00;;;;;;;;;;5083254;28;20500;-60
2022/12/30 08:37:33;;;;;;;3.85;3.65;;;;;;;;;;5082816;28;20203;-60
2022/12/30 08:40:00;;;;;;;3.65;3.35;;;;;;;;;;5082393;28;20196;-60
2022/12/30 08:42:27;;;;;;;5.60;3.35;;;;;;;;;;5082831;28;20192;-60
2022/12/30 08:44:54;;;;;;;6.90;3.30;;;;;;;;;;5082221;28;20399;-60
2022/12/30 08:47:20;;;;;;;4.10;3.17;;;;;;;;;;5081297;28;20235;-61
2022/12/30 08:49:46;;;;;;;4.03;3.80;;;;;;;;;;5080715;28;20238;-60
2022/12/30 08:52:13;;;;;;;5.03;4.50;;;;;;;;;;5081044;28;20242;-60
2022/12/30 08:54:39;;;;;;;5.88;5.32;;;;;;;;;;5081005;28;20200;-60
2022/12/30 08:57:07;;;;;;;5.20;4.80;;;;;;;;;;5081148;28;20208;-60
2022/12/30 08:59:35;;;;;;;5.75;4.90;;;;;;;;;;5080784;28;20234;-61
2022/12/30 09:02:01;;;;;;;6.22;5.18;;;;;;;;;;5082065;28;20242;-58
2022/12/30 09:04:28;;;;;;;6.25;5.18;;;;;;;;;;5082422;28;20337;-59
2022/12/30 09:06:54;;;;;;;4.88;4.47;;;;;;;;;;5082372;28;20204;-61
2022/12/30 09:09:21;;;;;;;4.22;3.92;;;;;;;;;;5081956;28;20196;-60
2022/12/30 09:11:47;;;;;;;5.53;3.70;;;;;;;;;;5082659;28;20199;-61
2022/12/30 09:14:14;;;;;;;4.15;3.75;;;;;;;;;;5082213;28;20240;-60
2022/12/30 09:16:42;;;;;;;3.65;3.45;;;;;;;;;;5082273;28;20234;-60
2022/12/30 09:19:08;;;;;;;4.10;3.80;;;;;;;;;;5081841;28;20234;-60
2022/12/30 09:21:35;;;;;;;2.75;2.65;;;;;;;;;;5082359;28;20204;-60
2022/12/30 09:24:01;;;;;;;3.83;3.53;;;;;;;;;;5082098;28;20256;-60
2022/12/30 09:26:28;;;;;;;5.10;3.60;;;;;;;;;;5082297;28;20204;-60
2022/12/30 09:28:55;;;;;;;4.63;3.40;;;;;;;;;;5081917;28;20543;-61
2022/12/30 09:31:21;;;;;;;3.85;3.08;;;;;;;;;;5082453;28;20519;-60
2022/12/30 09:33:49;;;;;;;3.33;3.03;;;;;;;;;;5082075;28;20220;-60
2022/12/30 09:36:15;;;;;;;4.22;2.97;;;;;;;;;;5082110;28;20203;-60
2022/12/30 09:38:41;;;;;;;2.53;2.42;;;;;;;;;;5082012;28;20205;-61
2022/12/30 09:41:08;;;;;;;5.35;3.10;;;;;;;;;;5082282;28;20196;-60
2022/12/30 09:43:37;;;;;;;3.05;2.75;;;;;;;;;;5082058;28;20437;-60
2022/12/30 09:46:18;;;;;;;2.63;2.53;;;;;;;;;;5082161;28;20230;-60
2022/12/30 09:48:47;;;;;;;2.80;2.70;;;;;;;;;;5079071;28;20196;-58
2022/12/30 09:51:18;;;;;;;3.03;2.92;;;;;;;;;;5082063;28;20270;-61
2022/12/30 09:53:46;;;;;;;2.85;2.75;;;;;;;;;;5082212;28;20500;-58
2022/12/30 09:56:13;;;;;;;2.85;2.58;;;;;;;;;;5085406;28;20410;-58
2022/12/30 09:58:40;;;;;;;4.03;3.20;;;;;;;;;;5085558;28;20192;-56
2022/12/30 10:01:11;;;;;;;3.58;2.75;;;;;;;;;;5086324;28;20219;-63
2022/12/30 10:03:37;;;;;;;3.22;2.80;;;;;;;;;;5085748;28;20254;-63
2022/12/30 10:06:08;;;;;;;2.47;2.38;;;;;;;;;;5085872;28;20196;-63
2022/12/30 10:08:42;;;;;;;3.30;2.83;;;;;;;;;;5085560;28;20196;-63
2022/12/30 10:11:13;;;;;;;4.13;2.20;;;;;;;;;;5085672;28;20204;-65
2022/12/30 10:13:44;;;;;;;2.45;2.25;;;;;;;;;;5085862;28;20212;-63
2022/12/30 10:16:15;;;;;;;5.18;2.97;;;;;;;;;;5085638;28;20242;-65
2022/12/30 10:18:51;;;;;;;2.15;2.05;;;;;;;;;;5085509;28;20393;-65
2022/12/30 10:21:24;;;;;;;2.28;2.10;;;;;;;;;;5085385;28;20204;-64
2022/12/30 10:24:03;;;;;;;2.00;1.90;;;;;;;;;;5085603;28;20192;-64
2022/12/30 10:26:35;;;;;;;2.28;1.90;;;;;;;;;;5085453;28;20503;-64
2022/12/30 10:29:04;;;;;;;2.42;2.22;;;;;;;;;;5085089;28;20216;-64
2022/12/30 10:31:32;;;;;;;3.03;2.10;;;;;;;;;;5085453;28;20499;-64
2022/12/30 10:34:01;;;;;;;2.00;1.90;;;;;;;;;;5085229;28;20539;-64
2022/12/30 10:36:30;;;;;;;1.80;1.70;;;;;;;;;;5085321;28;20222;-64
2022/12/30 10:38:59;;;;;;;1.85;1.75;;;;;;;;;;5084775;28;20422;-64
2022/12/30 10:41:35;;;;;;;2.47;2.20;;;;;;;;;;5085361;28;20203;-64
2022/12/30 10:44:07;;;;;;;1.85;1.73;;;;;;;;;;5085390;28;20193;-64
2022/12/30 10:46:43;;;;;;;3.53;2.30;;;;;;;;;;5085245;28;20197;-64
2022/12/30 10:49:20;;;;;;;2.55;2.33;;;;;;;;;;5085032;28;20197;-64
2022/12/30 10:51:46;;;;;;;2.22;2.13;;;;;;;;;;5085124;28;20424;-64
2022/12/30 10:54:13;;;;;;;2.97;2.10;;;;;;;;;;5084987;28;20220;-64
2022/12/30 10:56:40;;;;;;;1.65;1.65;;;;;;;;;;5085113;28;20250;-64
2022/12/30 10:59:10;;;;;;;2.22;2.00;;;;;;;;;;5084603;28;20495;-64
2022/12/30 11:01:37;;;;;;;2.15;1.83;;;;;;;;;;5084779;28;20196;-64
2022/12/30 11:04:04;;;;;;;2.40;1.52;;;;;;;;;;5084602;28;20196;-64
2022/12/30 11:06:32;;;;;;;1.75;1.75;;;;;;;;;;5084199;28;20200;-64
2022/12/30 11:09:13;;;;;;;2.03;1.88;;;;;;;;;;5084440;28;20200;-64
2022/12/30 11:14:44;;;;;;;1.85;1.77;;;;;;;;;;5084413;28;20223;-64
2022/12/30 11:17:16;;;;;;;1.77;1.75;;;;;;;;;;5084640;28;20196;-64
2022/12/30 11:19:43;;;;;;;2.00;1.90;;;;;;;;;;5084303;28;20518;-64
2022/12/30 11:22:10;;;;;;;2.10;2.00;;;;;;;;;;5084448;28;20400;-64
2022/12/30 11:24:36;;;;;;;1.67;1.67;;;;;;;;;;5084341;28;20193;-64
2022/12/30 11:27:04;;;;;;;2.10;2.00;;;;;;;;;;5084458;28;20197;-64
2022/12/30 11:29:33;;;;;;;1.25;1.25;;;;;;;;;;5083784;28;20196;-64
2022/12/30 11:32:00;;;;;;;0.98;0.98;;;;;;;;;;5084314;28;20196;-64
2022/12/30 11:34:29;;;;;;;3.63;0.90;;;;;;;;;;5084224;28;20315;-64
2022/12/30 11:36:55;;;;;;;1.08;0.98;;;;;;;;;;5084188;28;20211;-64
2022/12/30 11:39:32;;;;;;;1.10;1.00;;;;;;;;;;5083694;28;20200;-64
2022/12/30 11:41:59;;;;;;;0.70;0.70;;;;;;;;;;5084164;28;20548;-64
2022/12/30 11:44:28;;;;;;;0.50;0.40;;;;;;;;;;5083932;28;20192;-64
2022/12/30 11:46:55;;;;;;;0.52;0.52;;;;;;;;;;5084008;28;20235;-64
2022/12/30 11:49:27;;;;;;;0.43;0.43;;;;;;;;;;5083493;28;20196;-64
2022/12/30 11:51:54;;;;;;;0.90;0.90;;;;;;;;;;5083751;28;20203;-64
2022/12/30 11:54:22;;;;;;;0.40;0.40;;;;;;;;;;5084065;28;20277;-64
2022/12/30 11:56:52;;;;;;;0.47;0.47;;;;;;;;;;5083890;28;20504;-64
2022/12/30 11:59:20;;;;;;;0.30;0.30;;;;;;;;;;5083378;28;20196;-64
2022/12/30 12:01:49;;;;;;;0.52;0.52;;;;;;;;;;5083754;28;20196;-64
2022/12/30 12:04:33;;;;;;;0.88;0.57;;;;;;;;;;5083491;28;20189;-64
2022/12/30 12:07:00;;;;;;;0.50;0.50;;;;;;;;;;5083655;28;20203;-64
2022/12/30 12:09:29;;;;;;;0.40;0.40;;;;;;;;;;5083223;28;20373;-64
2022/12/30 12:11:57;;;;;;;0.38;0.38;;;;;;;;;;5083360;28;20234;-64
2022/12/30 12:14:26;;;;;;;0.95;0.60;;;;;;;;;;5083157;28;20551;-64
2022/12/30 12:16:57;;;;;;;0.30;0.30;;;;;;;;;;5083169;28;20196;-64
2022/12/30 12:19:26;;;;;;;0.50;0.50;;;;;;;;;;5083091;28;20196;-64
2022/12/30 12:21:55;;;;;;;0.50;0.50;;;;;;;;;;5083198;28;20219;-64
2022/12/30 12:24:23;;;;;;;0.60;0.52;;;;;;;;;;5083011;28;20188;-64
2022/12/30 12:26:53;;;;;;;0.40;0.40;;;;;;;;;;5083112;28;20197;-64
2022/12/30 12:29:20;;;;;;;0.65;0.60;;;;;;;;;;5083023;28;20539;-64
2022/12/30 12:31:53;;;;;;;0.80;0.80;;;;;;;;;;5083263;28;20200;-64
2022/12/30 12:34:27;;;;;;;1.40;1.30;;;;;;;;;;5082989;28;20217;-64
2022/12/30 12:36:58;;;;;;;1.27;1.20;;;;;;;;;;5083199;28;20202;-64
2022/12/30 12:39:28;;;;;;;1.48;1.40;;;;;;;;;;5082699;28;20203;-64
2022/12/30 12:41:59;;;;;;;1.63;1.17;;;;;;;;;;5082584;28;20220;-64
2022/12/30 12:44:37;;;;;;;0.80;0.80;;;;;;;;;;5083074;28;20449;-64
2022/12/30 12:47:10;;;;;;;0.80;0.80;;;;;;;;;;5082850;28;20373;-64
2022/12/30 12:49:45;;;;;;;0.80;0.65;;;;;;;;;;5082801;28;20204;-64
2022/12/30 12:52:18;;;;;;;0.70;0.70;;;;;;;;;;5082589;28;20196;-64
2022/12/30 12:54:58;;;;;;;1.50;0.80;;;;;;;;;;5082577;28;20254;-64
2022/12/30 12:57:30;;;;;;;1.30;0.90;;;;;;;;;;5082856;28;20200;-64
2022/12/30 13:00:05;;;;;;;4.05;1.00;;;;;;;;;;5082337;28;20216;-64
2022/12/30 13:02:46;;;;;;;0.90;0.90;;;;;;;;;;5082533;28;20200;-64
2022/12/30 13:05:19;;;;;;;1.85;0.75;;;;;;;;;;5082751;28;20546;-64
2022/12/30 13:07:52;;;;;;;1.25;1.10;;;;;;;;;;5082586;28;20378;-64
2022/12/30 13:10:23;;;;;;;2.22;1.00;;;;;;;;;;5082123;28;20196;-64
2022/12/30 13:12:53;;;;;;;0.98;0.90;;;;;;;;;;5082390;28;20219;-64
2022/12/30 13:15:23;;;;;;;0.95;0.80;;;;;;;;;;5082066;28;20220;-64
2022/12/30 13:17:51;;;;;;;2.05;0.98;;;;;;;;;;5082214;28;20267;-64
2022/12/30 13:20:20;;;;;;;2.05;1.60;;;;;;;;;;5081999;28;20275;-64
2022/12/30 13:22:48;;;;;;;1.20;1.20;;;;;;;;;;5082208;28;20609;-64
2022/12/30 13:25:16;;;;;;;2.75;1.42;;;;;;;;;;5082250;28;20193;-64
2022/12/30 13:27:44;;;;;;;0.70;0.70;;;;;;;;;;5082082;28;20288;-64
2022/12/30 13:30:13;;;;;;;1.10;1.10;;;;;;;;;;5081711;28;20189;-64
2022/12/30 13:32:45;;;;;;;1.10;1.00;;;;;;;;;;5082466;28;20197;-64
2022/12/30 13:35:21;;;;;;;3.42;1.15;;;;;;;;;;5082065;28;20231;-64
2022/12/30 13:37:52;;;;;;;0.98;0.98;;;;;;;;;;5082143;28;20196;-64
2022/12/30 13:40:21;;;;;;;0.90;0.90;;;;;;;;;;5081587;28;20207;-64
2022/12/30 13:42:54;;;;;;;1.13;1.10;;;;;;;;;;5082136;28;20200;-64
2022/12/30 13:45:22;;;;;;;1.10;1.10;;;;;;;;;;5082043;28;20197;-64
2022/12/30 13:47:50;;;;;;;2.15;1.33;;;;;;;;;;5081911;28;20429;-64
2022/12/30 13:50:23;;;;;;;1.30;1.30;;;;;;;;;;5081738;28;20271;-64
2022/12/30 13:52:52;;;;;;;1.80;1.45;;;;;;;;;;5081999;28;20196;-64
2022/12/30 13:55:20;;;;;;;2.35;1.27;;;;;;;;;;5081845;28;20227;-64
2022/12/30 13:57:47;;;;;;;2.20;1.20;;;;;;;;;;5081728;28;20203;-64
2022/12/30 14:00:24;;;;;;;1.65;1.55;;;;;;;;;;5081566;28;20271;-64
2022/12/30 14:02:58;;;;;;;3.75;1.15;;;;;;;;;;5081981;28;20192;-64
2022/12/30 14:05:32;;;;;;;1.65;1.55;;;;;;;;;;5081783;28;20246;-64
2022/12/30 14:08:00;;;;;;;2.72;1.30;;;;;;;;;;5081742;28;20218;-64
2022/12/30 14:10:45;;;;;;;1.70;1.40;;;;;;;;;;5081850;28;20204;-64
2022/12/30 14:13:15;;;;;;;2.00;1.83;;;;;;;;;;5081735;28;20433;-64
2022/12/30 14:15:53;;;;;;;1.70;1.50;;;;;;;;;;5081550;28;20219;-64
2022/12/30 14:18:21;;;;;;;1.75;1.65;;;;;;;;;;5081506;28;20540;-64
2022/12/30 14:20:53;;;;;;;1.55;1.45;;;;;;;;;;5081609;28;20196;-64
2022/12/30 14:23:34;;;;;;;2.00;1.75;;;;;;;;;;5081753;28;20507;-62
2022/12/30 14:26:30;;;;;;;1.92;1.83;;;;;;;;;;5081667;28;20230;-62
2022/12/30 14:28:57;;;;;;;2.65;1.90;;;;;;;;;;5070340;28;20293;-62
2022/12/30 14:31:25;;;;;;;2.15;1.95;;;;;;;;;;5081737;28;20197;-62
2022/12/30 14:33:52;;;;;;;2.42;2.33;;;;;;;;;;5081599;28;20200;-62
2022/12/30 14:36:20;;;;;;;3.33;2.97;;;;;;;;;;5082105;28;20422;-62
2022/12/30 14:38:55;;;;;;;2.83;2.58;;;;;;;;;;5081379;28;20250;-62
2022/12/30 14:41:24;;;;;;;2.80;2.60;;;;;;;;;;5081719;28;20199;-62
2022/12/30 14:43:52;;;;;;;4.10;3.00;;;;;;;;;;5085012;28;20200;-62
2022/12/30 14:46:36;;;;;;;3.20;3.00;;;;;;;;;;5084800;28;20197;-62
2022/12/30 14:49:03;;;;;;;2.65;2.45;;;;;;;;;;5084439;28;20242;-62
2022/12/30 14:51:30;;;;;;;2.08;1.98;;;;;;;;;;5084984;28;20200;-62
2022/12/30 14:53:56;;;;;;;1.90;1.70;;;;;;;;;;5085221;28;20242;-63
2022/12/30 14:56:25;;;;;;;1.95;1.30;;;;;;;;;;5085331;28;20196;-63
2022/12/30 14:58:52;;;;;;;1.45;0.90;;;;;;;;;;5084614;28;20196;-63
2022/12/30 15:01:19;;;;;;;0.60;0.60;;;;;;;;;;5084866;28;20474;-63
2022/12/30 15:03:45;;;;;;;0.88;0.88;;;;;;;;;;5084826;28;20196;-63
2022/12/30 15:06:13;;;;;;;0.70;0.70;;;;;;;;;;5084950;28;20193;-63
2022/12/30 15:08:41;;;;;;;0.57;0.50;;;;;;;;;;5084483;28;20197;-63
2022/12/30 15:11:08;;;;;;;2.55;0.60;;;;;;;;;;5084921;28;20515;-63
2022/12/30 15:13:40;;;;;;;0.40;0.40;;;;;;;;;;5084718;28;20241;-63
2022/12/30 15:16:08;;;;;;;0.60;0.60;;;;;;;;;;5084574;28;20419;-63
2022/12/30 15:18:38;;;;;;;0.65;0.65;;;;;;;;;;5084315;28;20200;-63
2022/12/30 15:21:28;;;;;;;0.70;0.70;;;;;;;;;;5084513;28;20512;-63
2022/12/30 15:24:08;;;;;;;0.73;0.70;;;;;;;;;;5069017;28;20263;-63
2022/12/30 15:26:37;;;;;;;0.40;0.40;;;;;;;;;;5084378;28;20211;-63
2022/12/30 15:29:06;;;;;;;1.15;1.02;;;;;;;;;;5084155;28;20448;-63
2022/12/30 15:31:33;;;;;;;0.50;0.50;;;;;;;;;;5084311;28;20205;-63
2022/12/30 15:34:00;;;;;;;4.22;0.60;;;;;;;;;;5084358;28;20196;-63
2022/12/30 15:36:27;;;;;;;0.50;0.50;;;;;;;;;;5084048;28;20227;-63
2022/12/30 15:38:55;;;;;;;0.50;0.50;;;;;;;;;;5083767;28;20228;-63
2022/12/30 15:41:24;;;;;;;0.43;0.43;;;;;;;;;;5084089;28;20200;-63
2022/12/30 15:43:51;;;;;;;0.43;0.43;;;;;;;;;;5084284;28;20211;-63
2022/12/30 15:46:24;;;;;;;0.52;0.47;;;;;;;;;;5084236;28;20200;-63